Time;durP1;ratioP1;P1;durP2;ratioP2;P2;SDS_P1;SDS_P2;PMS_P1;PMS_P2;Temp;Humidity;BMP_temperature;BMP_pressure;BME280_temperature;BME280_humidity;BME280_pressure;Samples;Min_cycle;Max_cycle;Signal;HPM_P1;HPM_P2
2022/07/11 00:02:12;;;;;;;2.67;1.73;;;;;;;;;;5019869;28;20207;-79
2022/07/11 00:04:40;;;;;;;2.77;1.80;;;;;;;;;;5016882;28;20211;-81
2022/07/11 00:07:07;;;;;;;3.13;1.93;;;;;;;;;;5022560;28;20208;-79
2022/07/11 00:09:35;;;;;;;2.87;2.00;;;;;;;;;;5026267;28;20253;-79
2022/07/11 00:12:02;;;;;;;3.43;1.93;;;;;;;;;;5023001;28;20235;-78
2022/07/11 00:14:29;;;;;;;4.30;1.80;;;;;;;;;;5039529;28;20839;-80
2022/07/11 00:16:57;;;;;;;3.60;2.27;;;;;;;;;;5023605;28;20289;-77
2022/07/11 00:19:24;;;;;;;2.70;1.80;;;;;;;;;;5013026;28;20322;-78
2022/07/11 00:21:51;;;;;;;3.33;1.67;;;;;;;;;;5010696;28;20226;-78
2022/07/11 00:24:19;;;;;;;3.50;1.70;;;;;;;;;;5023196;28;20294;-78
2022/07/11 00:26:47;;;;;;;2.27;1.90;;;;;;;;;;5009340;28;20213;-75
2022/07/11 00:29:15;;;;;;;2.30;1.80;;;;;;;;;;5016540;28;20231;-77
2022/07/11 00:31:42;;;;;;;2.30;1.60;;;;;;;;;;5022187;28;20299;-79
2022/07/11 00:34:10;;;;;;;2.40;1.47;;;;;;;;;;5018060;28;20845;-79
2022/07/11 00:36:37;;;;;;;1.70;1.60;;;;;;;;;;5019833;28;20219;-77
2022/07/11 00:39:05;;;;;;;1.97;1.60;;;;;;;;;;5012001;28;20309;-79
2022/07/11 00:41:33;;;;;;;2.70;1.83;;;;;;;;;;5011983;28;20298;-78
2022/07/11 00:44:01;;;;;;;2.00;1.80;;;;;;;;;;5023596;28;20222;-77
2022/07/11 00:46:29;;;;;;;2.43;1.80;;;;;;;;;;5024489;28;20233;-78
2022/07/11 00:48:57;;;;;;;2.77;1.60;;;;;;;;;;5015213;28;20313;-78
2022/07/11 00:51:25;;;;;;;2.00;1.80;;;;;;;;;;5009300;28;20283;-77
2022/07/11 00:53:54;;;;;;;1.80;1.70;;;;;;;;;;5020869;28;20284;-79
2022/07/11 00:56:22;;;;;;;2.47;1.80;;;;;;;;;;5011072;28;20302;-78
2022/07/11 00:58:49;;;;;;;1.53;1.43;;;;;;;;;;5008507;28;20246;-77
2022/07/11 01:01:17;;;;;;;2.57;1.60;;;;;;;;;;5010803;28;20230;-79
2022/07/11 01:03:45;;;;;;;3.47;1.60;;;;;;;;;;5006495;28;20441;-77
2022/07/11 01:06:13;;;;;;;3.63;2.00;;;;;;;;;;5008458;28;20207;-80
2022/07/11 01:08:40;;;;;;;1.90;1.70;;;;;;;;;;5015157;28;20234;-78
2022/07/11 01:11:18;;;;;;;2.37;2.10;;;;;;;;;;5013326;28;20230;-78
2022/07/11 01:13:46;;;;;;;3.00;2.07;;;;;;;;;;5009031;28;20297;-74
2022/07/11 01:16:14;;;;;;;2.93;1.93;;;;;;;;;;5015315;28;20255;-75
2022/07/11 01:18:52;;;;;;;3.27;1.90;;;;;;;;;;5012657;28;20253;-76
2022/07/11 01:21:20;;;;;;;2.10;1.93;;;;;;;;;;5022189;28;20223;-77
2022/07/11 01:23:48;;;;;;;2.53;2.03;;;;;;;;;;5013901;28;20225;-77
2022/07/11 01:26:16;;;;;;;2.07;1.80;;;;;;;;;;5023787;28;20293;-80
2022/07/11 01:28:44;;;;;;;2.43;1.97;;;;;;;;;;5019124;28;20241;-77
2022/07/11 01:31:12;;;;;;;3.20;2.00;;;;;;;;;;5017161;28;20261;-77
2022/07/11 01:33:40;;;;;;;2.23;1.93;;;;;;;;;;5013994;28;20626;-78
2022/07/11 01:36:08;;;;;;;1.90;1.80;;;;;;;;;;5010002;28;20238;-78
2022/07/11 01:38:36;;;;;;;2.20;2.00;;;;;;;;;;5010946;28;20338;-78
2022/07/11 01:41:03;;;;;;;2.10;1.90;;;;;;;;;;5006752;28;20226;-79
2022/07/11 01:43:30;;;;;;;2.73;1.90;;;;;;;;;;5015743;28;20285;-78
2022/07/11 01:45:57;;;;;;;3.20;1.87;;;;;;;;;;5016658;28;20260;-78
2022/07/11 01:48:25;;;;;;;2.80;2.10;;;;;;;;;;5018372;28;20210;-78
2022/07/11 01:50:52;;;;;;;3.27;2.17;;;;;;;;;;5014108;28;20231;-78
2022/07/11 01:53:19;;;;;;;4.20;2.00;;;;;;;;;;5007209;28;20263;-76
2022/07/11 01:55:46;;;;;;;3.73;2.27;;;;;;;;;;5014691;28;20282;-77
2022/07/11 01:58:33;;;;;;;2.63;2.43;;;;;;;;;;5014592;28;20207;-77
2022/07/11 02:01:01;;;;;;;2.87;2.30;;;;;;;;;;5013038;28;20716;-78
2022/07/11 02:03:28;;;;;;;2.47;1.73;;;;;;;;;;5011057;28;20242;-77
2022/07/11 02:05:55;;;;;;;3.23;1.80;;;;;;;;;;5017770;28;22964;-77
2022/07/11 02:08:23;;;;;;;2.37;1.80;;;;;;;;;;5019319;28;20282;-76
2022/07/11 02:10:51;;;;;;;2.97;2.20;;;;;;;;;;5019283;28;20313;-78
2022/07/11 02:13:25;;;;;;;1.87;1.77;;;;;;;;;;5017950;28;20636;-77
2022/07/11 02:15:53;;;;;;;3.80;2.50;;;;;;;;;;5014266;28;20235;-77
2022/07/11 02:18:20;;;;;;;2.83;2.00;;;;;;;;;;5019291;28;20199;-77
2022/07/11 02:20:51;;;;;;;3.83;2.30;;;;;;;;;;5018907;28;20318;-78
2022/07/11 02:23:19;;;;;;;2.40;1.93;;;;;;;;;;5011445;28;20235;-77
2022/07/11 02:25:47;;;;;;;4.17;2.00;;;;;;;;;;5020437;28;20203;-77
2022/07/11 02:28:14;;;;;;;2.07;1.87;;;;;;;;;;5016923;28;20633;-78
2022/07/11 02:30:42;;;;;;;2.53;2.03;;;;;;;;;;5018588;28;20253;-79
2022/07/11 02:33:15;;;;;;;2.30;2.10;;;;;;;;;;5034678;28;20203;-79
2022/07/11 02:35:43;;;;;;;2.57;2.30;;;;;;;;;;5021219;28;20231;-77
2022/07/11 02:38:11;;;;;;;2.43;1.97;;;;;;;;;;5009835;28;20215;-76
2022/07/11 02:40:38;;;;;;;2.83;2.30;;;;;;;;;;5017770;28;20317;-78
2022/07/11 02:43:06;;;;;;;2.33;2.20;;;;;;;;;;5029749;28;20204;-76
2022/07/11 02:45:33;;;;;;;2.40;2.20;;;;;;;;;;5006046;28;22312;-78
2022/07/11 02:48:01;;;;;;;6.10;4.60;;;;;;;;;;5011707;28;20239;-78
2022/07/11 02:50:28;;;;;;;3.90;2.63;;;;;;;;;;5043799;28;20257;-79
2022/07/11 02:52:55;;;;;;;3.13;2.57;;;;;;;;;;5021471;28;20395;-76
2022/07/11 02:55:22;;;;;;;2.57;2.17;;;;;;;;;;5022583;28;20325;-78
2022/07/11 02:57:50;;;;;;;3.30;2.40;;;;;;;;;;5015718;28;20733;-76
2022/07/11 03:00:17;;;;;;;4.67;2.43;;;;;;;;;;5030169;28;20317;-79
2022/07/11 03:02:45;;;;;;;2.70;2.30;;;;;;;;;;5016209;28;20211;-78
2022/07/11 03:05:15;;;;;;;6.03;3.13;;;;;;;;;;5020279;28;20203;-77
2022/07/11 03:07:43;;;;;;;3.60;2.40;;;;;;;;;;5019419;28;20671;-78
2022/07/11 03:10:10;;;;;;;4.17;2.23;;;;;;;;;;5022961;28;20321;-75
2022/07/11 03:12:38;;;;;;;5.70;2.90;;;;;;;;;;5022787;28;20225;-79
2022/07/11 03:15:06;;;;;;;3.50;2.20;;;;;;;;;;5018361;28;20673;-77
2022/07/11 03:17:33;;;;;;;3.60;2.33;;;;;;;;;;5016939;28;20645;-77
2022/07/11 03:20:00;;;;;;;3.10;2.20;;;;;;;;;;5020109;28;21003;-79
2022/07/11 03:22:28;;;;;;;2.80;2.20;;;;;;;;;;5006966;28;20203;-79
2022/07/11 03:25:00;;;;;;;2.87;2.13;;;;;;;;;;5017218;28;20294;-76
2022/07/11 03:27:27;;;;;;;2.37;2.17;;;;;;;;;;5030823;28;20226;-79
2022/07/11 03:29:54;;;;;;;4.40;2.60;;;;;;;;;;5020438;28;20219;-79
2022/07/11 03:32:22;;;;;;;2.70;2.50;;;;;;;;;;5009078;28;20329;-78
2022/07/11 03:37:41;;;;;;;3.37;2.47;;;;;;;;;;5013912;28;20210;-78
2022/07/11 03:40:09;;;;;;;4.43;3.87;;;;;;;;;;5013076;28;20222;-77
2022/07/11 03:42:36;;;;;;;3.73;3.00;;;;;;;;;;5008590;28;22209;-76
2022/07/11 03:45:04;;;;;;;2.30;2.10;;;;;;;;;;5012942;28;20333;-78
2022/07/11 03:47:32;;;;;;;3.40;2.70;;;;;;;;;;5014886;28;20675;-78
2022/07/11 03:50:00;;;;;;;7.33;3.60;;;;;;;;;;5018082;28;20234;-77
2022/07/11 03:52:28;;;;;;;5.50;3.33;;;;;;;;;;5038297;28;20198;-77
2022/07/11 03:54:57;;;;;;;5.00;3.60;;;;;;;;;;5020075;28;20208;-77
2022/07/11 03:57:24;;;;;;;5.70;2.93;;;;;;;;;;5019847;28;20289;-77
2022/07/11 03:59:52;;;;;;;3.63;2.80;;;;;;;;;;5018107;28;20369;-77
2022/07/11 04:02:19;;;;;;;3.23;2.60;;;;;;;;;;5016336;28;20729;-77
2022/07/11 04:04:47;;;;;;;4.77;2.80;;;;;;;;;;5025148;28;20604;-77
2022/07/11 04:07:14;;;;;;;2.70;2.50;;;;;;;;;;5025288;28;20617;-78
2022/07/11 04:09:41;;;;;;;2.43;2.23;;;;;;;;;;5014719;28;20247;-78
2022/07/11 04:12:09;;;;;;;3.67;2.10;;;;;;;;;;5018981;28;20499;-77
2022/07/11 04:14:36;;;;;;;2.73;2.30;;;;;;;;;;5015151;28;20652;-79
2022/07/11 04:17:04;;;;;;;3.93;3.13;;;;;;;;;;5023222;28;20231;-79
2022/07/11 04:19:31;;;;;;;2.57;2.37;;;;;;;;;;5013887;28;20254;-77
2022/07/11 04:21:59;;;;;;;6.33;4.67;;;;;;;;;;5019270;28;20747;-78
2022/07/11 04:24:26;;;;;;;5.83;3.43;;;;;;;;;;5010598;28;20283;-77
2022/07/11 04:26:53;;;;;;;3.23;2.30;;;;;;;;;;5017869;28;20293;-75
2022/07/11 04:29:20;;;;;;;3.43;2.47;;;;;;;;;;5007745;28;20310;-77
2022/07/11 04:31:48;;;;;;;9.00;6.10;;;;;;;;;;5013523;28;20234;-78
2022/07/11 04:34:15;;;;;;;3.80;2.80;;;;;;;;;;5015071;28;20294;-78
2022/07/11 04:36:42;;;;;;;3.27;2.10;;;;;;;;;;5017066;28;20301;-78
2022/07/11 04:39:09;;;;;;;2.73;2.30;;;;;;;;;;5016091;28;20257;-78
2022/07/11 04:41:37;;;;;;;2.60;2.17;;;;;;;;;;5016793;28;20307;-78
2022/07/11 04:44:04;;;;;;;2.30;2.10;;;;;;;;;;5025619;28;20299;-78
2022/07/11 04:46:31;;;;;;;3.93;2.17;;;;;;;;;;5017177;28;20638;-78
2022/07/11 04:48:59;;;;;;;3.70;2.37;;;;;;;;;;5018278;28;20243;-75
2022/07/11 04:51:26;;;;;;;1.90;1.80;;;;;;;;;;5019054;28;20239;-76
2022/07/11 04:53:53;;;;;;;2.47;2.27;;;;;;;;;;5024027;28;20276;-78
2022/07/11 04:56:21;;;;;;;3.27;2.23;;;;;;;;;;5023052;28;20253;-78
2022/07/11 04:58:48;;;;;;;2.03;1.90;;;;;;;;;;5026388;28;22658;-77
2022/07/11 05:01:15;;;;;;;3.40;2.30;;;;;;;;;;5016896;28;20229;-77
2022/07/11 05:03:44;;;;;;;3.13;2.40;;;;;;;;;;5022833;28;20321;-78
2022/07/11 05:06:13;;;;;;;2.80;2.40;;;;;;;;;;5020736;28;20203;-76
2022/07/11 05:08:40;;;;;;;6.67;2.47;;;;;;;;;;5022695;28;20211;-78
2022/07/11 05:11:07;;;;;;;2.80;2.43;;;;;;;;;;5024140;28;20199;-78
2022/07/11 05:13:38;;;;;;;4.03;2.27;;;;;;;;;;5023717;28;20207;-77
2022/07/11 05:16:06;;;;;;;3.00;2.70;;;;;;;;;;5021903;28;20555;-77
2022/07/11 05:18:33;;;;;;;2.70;2.43;;;;;;;;;;5014227;28;20771;-77
2022/07/11 05:21:01;;;;;;;3.30;2.40;;;;;;;;;;5028893;28;20309;-79
2022/07/11 05:23:28;;;;;;;2.80;2.43;;;;;;;;;;5022072;28;20285;-77
2022/07/11 05:25:55;;;;;;;5.57;2.70;;;;;;;;;;5021132;28;20304;-77
2022/07/11 05:28:23;;;;;;;3.37;2.20;;;;;;;;;;5023301;28;20206;-79
2022/07/11 05:30:50;;;;;;;4.10;2.10;;;;;;;;;;5019827;28;20257;-78
2022/07/11 05:33:17;;;;;;;3.13;1.83;;;;;;;;;;5021511;28;20245;-79
2022/07/11 05:35:44;;;;;;;2.53;1.50;;;;;;;;;;5019579;28;20353;-78
2022/07/11 05:38:11;;;;;;;2.15;1.25;;;;;;;;;;5019975;28;20237;-79
2022/07/11 05:40:39;;;;;;;1.42;1.30;;;;;;;;;;5020306;28;20246;-77
2022/07/11 05:43:07;;;;;;;1.95;1.20;;;;;;;;;;5016141;28;20252;-76
2022/07/11 05:45:35;;;;;;;1.13;1.00;;;;;;;;;;5018324;28;20646;-77
2022/07/11 05:48:02;;;;;;;2.25;1.20;;;;;;;;;;5018751;28;20203;-76
2022/07/11 05:50:29;;;;;;;2.28;1.13;;;;;;;;;;5022678;28;20246;-78
2022/07/11 05:52:57;;;;;;;2.28;1.33;;;;;;;;;;5021848;28;20611;-77
2022/07/11 05:55:24;;;;;;;3.33;1.20;;;;;;;;;;5022911;28;20670;-79
2022/07/11 05:57:51;;;;;;;2.92;1.75;;;;;;;;;;5012177;28;20303;-79
2022/07/11 06:00:19;;;;;;;2.22;1.48;;;;;;;;;;5033383;28;20242;-78
2022/07/11 06:02:47;;;;;;;1.77;1.30;;;;;;;;;;5010539;28;20314;-80
2022/07/11 06:05:15;;;;;;;1.55;1.45;;;;;;;;;;5016170;28;20211;-79
2022/07/11 06:10:28;;;;;;;1.58;1.42;;;;;;;;;;5014537;28;20226;-79
2022/07/11 06:12:56;;;;;;;1.50;1.40;;;;;;;;;;5016537;28;20298;-77
2022/07/11 06:15:23;;;;;;;2.45;1.70;;;;;;;;;;5011351;28;22040;-76
2022/07/11 06:17:51;;;;;;;3.13;1.80;;;;;;;;;;5023120;28;20242;-78
2022/07/11 06:20:18;;;;;;;2.55;1.80;;;;;;;;;;5021423;28;20266;-77
2022/07/11 06:22:45;;;;;;;2.35;2.00;;;;;;;;;;5006773;28;20856;-76
2022/07/11 06:25:13;;;;;;;3.22;2.03;;;;;;;;;;5029874;28;20226;-78
2022/07/11 06:27:40;;;;;;;2.20;2.10;;;;;;;;;;5022936;28;20286;-78
2022/07/11 06:30:08;;;;;;;2.60;2.40;;;;;;;;;;5018539;28;20586;-77
2022/07/11 06:32:35;;;;;;;4.63;3.00;;;;;;;;;;5021497;28;20651;-77
2022/07/11 06:35:02;;;;;;;2.95;2.63;;;;;;;;;;5013846;28;20299;-77
2022/07/11 06:37:30;;;;;;;2.85;2.65;;;;;;;;;;5015455;28;20749;-78
2022/07/11 06:39:57;;;;;;;2.53;2.42;;;;;;;;;;5013436;28;20836;-78
2022/07/11 06:42:25;;;;;;;2.85;2.63;;;;;;;;;;5017863;28;20254;-77
2022/07/11 06:44:52;;;;;;;3.03;2.40;;;;;;;;;;5016380;28;20283;-78
2022/07/11 06:47:19;;;;;;;3.00;2.15;;;;;;;;;;5014826;28;20214;-77
2022/07/11 06:49:47;;;;;;;1.83;1.73;;;;;;;;;;5016076;28;20259;-77
2022/07/11 06:52:14;;;;;;;2.22;1.75;;;;;;;;;;5017470;28;20294;-77
2022/07/11 06:54:42;;;;;;;2.63;1.80;;;;;;;;;;5015063;28;20318;-76
2022/07/11 06:57:09;;;;;;;2.47;2.25;;;;;;;;;;5020048;28;20651;-77
2022/07/11 06:59:38;;;;;;;2.38;2.17;;;;;;;;;;5017650;28;20283;-76
2022/07/11 07:02:06;;;;;;;2.10;2.00;;;;;;;;;;5020270;28;20219;-78
2022/07/11 07:04:34;;;;;;;3.00;1.92;;;;;;;;;;5026435;28;20690;-77
2022/07/11 07:07:01;;;;;;;2.47;2.28;;;;;;;;;;5023034;28;20200;-78
2022/07/11 07:09:29;;;;;;;2.15;1.90;;;;;;;;;;5021957;28;20219;-78
2022/07/11 07:11:58;;;;;;;2.00;1.75;;;;;;;;;;5018981;28;20214;-78
2022/07/11 07:14:26;;;;;;;1.60;1.50;;;;;;;;;;5015290;28;20261;-77
2022/07/11 07:16:53;;;;;;;2.33;1.65;;;;;;;;;;5021486;28;20289;-78
2022/07/11 07:19:20;;;;;;;3.05;1.70;;;;;;;;;;5019101;28;20790;-77
2022/07/11 07:21:48;;;;;;;1.42;1.30;;;;;;;;;;5015610;28;20257;-78
2022/07/11 07:24:15;;;;;;;1.33;1.23;;;;;;;;;;5016704;28;20330;-77
2022/07/11 07:26:44;;;;;;;2.38;2.15;;;;;;;;;;5014448;28;22055;-76
2022/07/11 07:29:13;;;;;;;2.25;2.05;;;;;;;;;;5013942;28;20226;-79
2022/07/11 07:31:40;;;;;;;2.35;2.10;;;;;;;;;;5011586;28;20274;-77
2022/07/11 07:34:08;;;;;;;2.22;2.03;;;;;;;;;;5014945;28;20285;-77
2022/07/11 07:36:36;;;;;;;2.30;2.10;;;;;;;;;;5019625;28;20285;-78
2022/07/11 07:39:03;;;;;;;2.03;1.90;;;;;;;;;;5037885;28;20302;-77
2022/07/11 07:41:30;;;;;;;2.60;1.80;;;;;;;;;;5028518;28;20378;-80
2022/07/11 07:43:58;;;;;;;1.73;1.63;;;;;;;;;;5020145;28;20297;-76
2022/07/11 07:46:25;;;;;;;2.25;1.48;;;;;;;;;;5017431;28;20202;-77
2022/07/11 07:48:53;;;;;;;1.40;1.30;;;;;;;;;;5012888;28;20215;-77
2022/07/11 07:51:21;;;;;;;1.98;1.52;;;;;;;;;;5007958;28;20231;-78
2022/07/11 07:53:48;;;;;;;1.50;1.40;;;;;;;;;;5006624;28;20244;-76
2022/07/11 07:56:23;;;;;;;1.60;1.10;;;;;;;;;;5017714;28;20296;-79
2022/07/11 07:58:51;;;;;;;0.95;0.95;;;;;;;;;;5019472;28;20632;-77
2022/07/11 08:01:52;;;;;;;0.68;0.68;;;;;;;;;;5019118;28;20675;-77
2022/07/11 08:04:13;;;;;;;0.50;0.50;;;;;;;;;;5007067;28;20206;-78
2022/07/11 08:06:40;;;;;;;0.40;0.40;;;;;;;;;;5026738;28;20206;-78
2022/07/11 08:09:07;;;;;;;1.88;0.70;;;;;;;;;;5018997;28;20309;-76
2022/07/11 08:11:35;;;;;;;1.85;0.70;;;;;;;;;;5014153;28;20206;-79
2022/07/11 08:14:03;;;;;;;0.50;0.50;;;;;;;;;;5011681;28;20217;-78
2022/07/11 08:16:32;;;;;;;1.00;0.73;;;;;;;;;;5009620;28;20218;-79
2022/07/11 08:19:00;;;;;;;0.45;0.45;;;;;;;;;;5015187;28;20285;-78
2022/07/11 08:21:28;;;;;;;0.63;0.63;;;;;;;;;;5021499;28;20230;-78
2022/07/11 08:23:56;;;;;;;0.40;0.40;;;;;;;;;;5020620;28;20211;-79
2022/07/11 08:26:24;;;;;;;0.35;0.35;;;;;;;;;;5017597;28;20586;-79
2022/07/11 08:28:58;;;;;;;0.40;0.40;;;;;;;;;;5024134;28;20199;-78
2022/07/11 08:31:26;;;;;;;0.30;0.30;;;;;;;;;;5017412;28;20238;-78
2022/07/11 08:33:53;;;;;;;0.40;0.40;;;;;;;;;;5015302;28;20210;-77
2022/07/11 08:36:21;;;;;;;0.40;0.40;;;;;;;;;;5015839;28;20573;-78
2022/07/11 08:38:48;;;;;;;0.45;0.45;;;;;;;;;;5017372;28;20211;-78
2022/07/11 08:41:18;;;;;;;0.50;0.50;;;;;;;;;;5018035;28;20230;-77
2022/07/11 08:43:49;;;;;;;0.40;0.40;;;;;;;;;;5024598;28;20264;-78
2022/07/11 08:46:17;;;;;;;0.40;0.40;;;;;;;;;;5019044;28;20207;-75
2022/07/11 08:48:46;;;;;;;0.45;0.45;;;;;;;;;;5025799;28;20576;-78
2022/07/11 08:51:13;;;;;;;0.60;0.60;;;;;;;;;;5016026;28;20203;-75
2022/07/11 08:53:43;;;;;;;0.60;0.60;;;;;;;;;;5020629;28;20234;-77
2022/07/11 08:56:15;;;;;;;1.00;1.00;;;;;;;;;;5020006;28;20217;-79
2022/07/11 08:58:44;;;;;;;0.73;0.70;;;;;;;;;;5025187;28;20199;-77
2022/07/11 09:01:20;;;;;;;1.42;0.63;;;;;;;;;;5016315;28;20210;-78
2022/07/11 09:03:48;;;;;;;0.55;0.55;;;;;;;;;;5012851;28;20212;-77
2022/07/11 09:06:16;;;;;;;0.60;0.60;;;;;;;;;;5014069;28;20203;-78
2022/07/11 09:08:44;;;;;;;2.65;2.40;;;;;;;;;;5017785;28;20211;-79
2022/07/11 09:11:11;;;;;;;0.55;0.55;;;;;;;;;;5024376;28;20223;-76
2022/07/11 09:13:38;;;;;;;0.80;0.80;;;;;;;;;;5016785;28;20238;-77
2022/07/11 09:16:06;;;;;;;0.70;0.70;;;;;;;;;;5019989;28;20743;-77
2022/07/11 09:18:43;;;;;;;0.70;0.70;;;;;;;;;;5017659;28;20203;-77
2022/07/11 09:26:49;;;;;;;0.50;0.50;;;;;;;;;;5017105;28;20211;-77
2022/07/11 09:29:20;;;;;;;0.60;0.60;;;;;;;;;;5027890;28;20235;-76
2022/07/11 09:31:48;;;;;;;0.60;0.60;;;;;;;;;;5017640;28;20249;-77
2022/07/11 09:34:17;;;;;;;0.70;0.70;;;;;;;;;;5010564;28;20207;-78
2022/07/11 09:36:55;;;;;;;0.50;0.50;;;;;;;;;;5020504;28;20207;-78
2022/07/11 09:39:27;;;;;;;0.50;0.50;;;;;;;;;;5013700;28;20340;-77
2022/07/11 09:41:55;;;;;;;0.60;0.60;;;;;;;;;;5011147;28;20231;-78
2022/07/11 09:44:24;;;;;;;0.40;0.40;;;;;;;;;;5016860;28;20294;-78
2022/07/11 09:46:52;;;;;;;0.63;0.60;;;;;;;;;;5010434;28;20203;-77
2022/07/11 09:49:39;;;;;;;0.50;0.50;;;;;;;;;;5016402;28;20223;-78
2022/07/11 09:52:16;;;;;;;0.50;0.50;;;;;;;;;;5021203;28;20202;-78
2022/07/11 09:54:54;;;;;;;0.50;0.50;;;;;;;;;;5013073;28;20619;-77
2022/07/11 09:57:38;;;;;;;0.50;0.50;;;;;;;;;;5019973;28;20211;-78
2022/07/11 10:00:09;;;;;;;0.43;0.43;;;;;;;;;;5017572;28;20318;-78
2022/07/11 10:02:36;;;;;;;0.50;0.50;;;;;;;;;;5010853;28;20321;-77
2022/07/11 10:05:04;;;;;;;0.65;0.65;;;;;;;;;;5016708;28;20229;-77
2022/07/11 10:07:32;;;;;;;0.50;0.50;;;;;;;;;;5017606;28;20226;-76
2022/07/11 10:10:01;;;;;;;0.52;0.52;;;;;;;;;;5022651;28;21696;-77
2022/07/11 10:12:31;;;;;;;0.68;0.68;;;;;;;;;;5013319;28;20302;-78
2022/07/11 10:15:09;;;;;;;0.50;0.50;;;;;;;;;;5013952;28;20207;-76
2022/07/11 10:17:43;;;;;;;0.43;0.43;;;;;;;;;;5027941;28;20286;-76
2022/07/11 10:20:31;;;;;;;0.50;0.50;;;;;;;;;;5015494;28;20305;-78
2022/07/11 10:23:10;;;;;;;0.45;0.40;;;;;;;;;;5016509;28;20713;-77
2022/07/11 10:25:55;;;;;;;0.70;0.68;;;;;;;;;;5013793;28;20226;-77
2022/07/11 10:28:22;;;;;;;0.73;0.73;;;;;;;;;;5011480;28;20294;-78
2022/07/11 10:30:51;;;;;;;2.17;2.00;;;;;;;;;;5011018;28;20254;-76
2022/07/11 10:33:19;;;;;;;1.02;1.02;;;;;;;;;;5011319;28;20214;-77
2022/07/11 10:35:47;;;;;;;0.50;0.50;;;;;;;;;;5022444;28;20286;-78
2022/07/11 10:38:15;;;;;;;1.20;0.50;;;;;;;;;;5015375;28;20230;-78
2022/07/11 10:40:46;;;;;;;0.52;0.52;;;;;;;;;;5011612;28;20231;-78
2022/07/11 10:43:14;;;;;;;0.70;0.70;;;;;;;;;;5015748;28;20222;-77
2022/07/11 10:46:00;;;;;;;1.65;0.70;;;;;;;;;;5015888;28;20728;-76
2022/07/11 10:48:30;;;;;;;0.50;0.50;;;;;;;;;;5032099;28;20204;-77
2022/07/11 10:51:12;;;;;;;1.15;0.60;;;;;;;;;;5010413;28;20361;-78
2022/07/11 10:53:40;;;;;;;1.23;0.50;;;;;;;;;;5010928;28;20242;-79
2022/07/11 10:56:07;;;;;;;0.50;0.50;;;;;;;;;;5019111;28;20290;-79
2022/07/11 10:58:45;;;;;;;0.63;0.63;;;;;;;;;;5008009;28;20203;-77
2022/07/11 11:01:13;;;;;;;0.50;0.50;;;;;;;;;;5026989;28;20724;-77
2022/07/11 11:03:41;;;;;;;1.80;0.80;;;;;;;;;;5018539;28;20223;-79
2022/07/11 11:06:09;;;;;;;0.75;0.70;;;;;;;;;;5025182;28;20437;-77
2022/07/11 11:08:40;;;;;;;0.60;0.60;;;;;;;;;;5017301;28;20291;-77
2022/07/11 11:11:20;;;;;;;1.42;0.70;;;;;;;;;;5008983;28;20210;-77
2022/07/11 11:14:13;;;;;;;0.82;0.80;;;;;;;;;;5020079;28;20238;-78
2022/07/11 11:16:40;;;;;;;0.75;0.75;;;;;;;;;;5013129;28;20242;-78
2022/07/11 11:19:07;;;;;;;0.70;0.70;;;;;;;;;;5015343;28;20245;-78
2022/07/11 11:21:34;;;;;;;0.57;0.57;;;;;;;;;;5016373;28;20294;-78
2022/07/11 11:24:02;;;;;;;0.60;0.60;;;;;;;;;;5011752;28;20306;-79
2022/07/11 11:26:44;;;;;;;0.77;0.73;;;;;;;;;;5015253;28;20195;-79
2022/07/11 11:29:11;;;;;;;0.60;0.60;;;;;;;;;;5014967;28;20321;-76
2022/07/11 11:31:38;;;;;;;0.70;0.70;;;;;;;;;;5021279;28;20741;-77
2022/07/11 11:34:06;;;;;;;0.60;0.60;;;;;;;;;;5018153;28;20770;-78
2022/07/11 11:36:34;;;;;;;1.27;0.47;;;;;;;;;;5012586;28;20257;-77
2022/07/11 11:39:05;;;;;;;1.38;0.70;;;;;;;;;;5010472;28;20226;-78
2022/07/11 11:41:32;;;;;;;0.45;0.45;;;;;;;;;;5009550;28;20639;-79
2022/07/11 11:44:01;;;;;;;0.40;0.40;;;;;;;;;;5017015;28;20262;-78
2022/07/11 11:46:29;;;;;;;0.40;0.40;;;;;;;;;;5016637;28;20700;-77
2022/07/11 11:49:01;;;;;;;0.50;0.50;;;;;;;;;;5013441;28;20208;-76
2022/07/11 11:51:29;;;;;;;0.82;0.70;;;;;;;;;;5017112;28;20619;-77
2022/07/11 11:53:59;;;;;;;0.65;0.65;;;;;;;;;;5010340;28;20392;-78
2022/07/11 11:56:30;;;;;;;0.40;0.40;;;;;;;;;;5012462;28;20206;-76
2022/07/11 11:59:00;;;;;;;0.50;0.50;;;;;;;;;;5016734;28;20285;-78
2022/07/11 12:01:36;;;;;;;0.50;0.50;;;;;;;;;;5012628;28;20674;-76
2022/07/11 12:04:05;;;;;;;0.80;0.50;;;;;;;;;;5017256;28;20775;-76
2022/07/11 12:06:34;;;;;;;0.50;0.50;;;;;;;;;;5019248;28;20249;-77
2022/07/11 12:09:04;;;;;;;0.40;0.40;;;;;;;;;;5008616;28;20206;-76
2022/07/11 12:11:32;;;;;;;0.30;0.30;;;;;;;;;;5015064;28;20195;-78
2022/07/11 12:14:00;;;;;;;1.38;0.50;;;;;;;;;;5014806;28;20241;-76
2022/07/11 12:16:41;;;;;;;0.65;0.65;;;;;;;;;;5015018;28;20292;-77
2022/07/11 12:19:12;;;;;;;0.55;0.50;;;;;;;;;;5013762;28;20231;-77
2022/07/11 12:21:40;;;;;;;0.60;0.60;;;;;;;;;;5026675;28;20271;-79
2022/07/11 12:24:11;;;;;;;0.50;0.50;;;;;;;;;;5011377;28;20222;-77
2022/07/11 12:26:40;;;;;;;0.50;0.50;;;;;;;;;;5008988;28;20824;-77
2022/07/11 12:29:12;;;;;;;0.57;0.50;;;;;;;;;;5010235;28;20358;-78
2022/07/11 12:31:42;;;;;;;1.25;0.40;;;;;;;;;;5014870;28;20981;-77
2022/07/11 12:34:09;;;;;;;0.40;0.40;;;;;;;;;;5017597;28;20214;-78
2022/07/11 12:36:37;;;;;;;0.52;0.52;;;;;;;;;;5031878;28;20301;-78
2022/07/11 12:39:04;;;;;;;0.65;0.65;;;;;;;;;;5015439;28;20760;-77
2022/07/11 12:41:33;;;;;;;0.70;0.50;;;;;;;;;;5017507;28;20680;-77
2022/07/11 12:46:47;;;;;;;1.35;0.52;;;;;;;;;;5022936;28;20234;-76
2022/07/11 12:49:16;;;;;;;0.50;0.50;;;;;;;;;;5020506;28;20225;-77
2022/07/11 12:51:45;;;;;;;1.05;0.80;;;;;;;;;;5021154;28;20640;-77
2022/07/11 12:54:16;;;;;;;0.77;0.70;;;;;;;;;;5012904;28;21084;-77
2022/07/11 12:56:57;;;;;;;0.60;0.60;;;;;;;;;;5019708;28;20237;-77
2022/07/11 12:59:27;;;;;;;0.63;0.60;;;;;;;;;;5019662;28;20616;-76
2022/07/11 13:01:57;;;;;;;0.60;0.60;;;;;;;;;;5019590;28;20227;-76
2022/07/11 13:04:35;;;;;;;0.50;0.50;;;;;;;;;;5022065;28;20238;-79
2022/07/11 13:10:08;;;;;;;0.82;0.60;;;;;;;;;;5014765;28;20226;-75
2022/07/11 13:12:35;;;;;;;0.70;0.70;;;;;;;;;;5021022;28;20226;-78
2022/07/11 13:15:10;;;;;;;2.40;0.65;;;;;;;;;;5015926;28;20242;-77
2022/07/11 13:17:38;;;;;;;0.68;0.68;;;;;;;;;;5024258;28;20203;-77
2022/07/11 13:20:10;;;;;;;0.60;0.55;;;;;;;;;;5023477;28;20713;-78
2022/07/11 13:22:37;;;;;;;1.77;0.70;;;;;;;;;;5026323;28;20199;-77
2022/07/11 13:25:05;;;;;;;1.48;0.65;;;;;;;;;;5026409;28;20230;-75
2022/07/11 13:27:33;;;;;;;0.65;0.65;;;;;;;;;;5026688;28;20679;-79
2022/07/11 13:30:01;;;;;;;1.83;0.70;;;;;;;;;;5022325;28;20257;-77
2022/07/11 13:32:28;;;;;;;0.50;0.50;;;;;;;;;;5020683;28;20205;-78
2022/07/11 13:34:56;;;;;;;6.43;5.68;;;;;;;;;;5024034;28;20195;-77
2022/07/11 13:37:23;;;;;;;1.00;0.80;;;;;;;;;;5024122;28;20234;-78
2022/07/11 13:39:50;;;;;;;0.65;0.65;;;;;;;;;;5015461;28;20317;-76
2022/07/11 13:42:18;;;;;;;1.10;0.95;;;;;;;;;;5017765;28;23302;-78
2022/07/11 13:44:45;;;;;;;2.83;2.28;;;;;;;;;;5024698;28;20309;-76
2022/07/11 13:47:13;;;;;;;6.43;4.80;;;;;;;;;;5020705;28;20219;-77
2022/07/11 13:49:42;;;;;;;4.30;1.92;;;;;;;;;;5028307;28;20314;-76
2022/07/11 13:52:12;;;;;;;2.85;1.42;;;;;;;;;;5029562;28;20198;-79
2022/07/11 13:54:39;;;;;;;0.70;0.70;;;;;;;;;;5017484;28;20207;-78
2022/07/11 13:57:06;;;;;;;0.82;0.80;;;;;;;;;;5024680;28;20264;-76
2022/07/11 13:59:34;;;;;;;1.20;1.10;;;;;;;;;;5020173;28;20231;-78
2022/07/11 14:02:01;;;;;;;1.75;0.77;;;;;;;;;;5010942;28;20217;-75
2022/07/11 14:04:28;;;;;;;0.80;0.80;;;;;;;;;;5007818;28;20226;-77
2022/07/11 14:06:55;;;;;;;0.85;0.77;;;;;;;;;;5008088;28;20325;-77
2022/07/11 14:09:23;;;;;;;0.80;0.80;;;;;;;;;;5006867;28;20714;-77
2022/07/11 14:11:50;;;;;;;0.90;0.90;;;;;;;;;;5018552;28;21032;-77
2022/07/11 14:14:17;;;;;;;7.03;1.00;;;;;;;;;;5012134;28;20209;-76
2022/07/11 14:16:45;;;;;;;0.60;0.60;;;;;;;;;;5017012;28;20682;-75
2022/07/11 14:19:12;;;;;;;0.80;0.80;;;;;;;;;;5024579;28;20711;-77
2022/07/11 14:21:40;;;;;;;0.73;0.73;;;;;;;;;;5020269;28;20273;-75
2022/07/11 14:24:12;;;;;;;0.90;0.90;;;;;;;;;;5009136;28;20389;-78
2022/07/11 14:26:40;;;;;;;1.65;0.85;;;;;;;;;;5015022;28;20207;-77
2022/07/11 14:29:07;;;;;;;0.95;0.95;;;;;;;;;;5014276;28;20223;-77
2022/07/11 14:31:34;;;;;;;1.00;0.90;;;;;;;;;;5015311;28;20252;-76
2022/07/11 14:34:02;;;;;;;1.08;0.98;;;;;;;;;;5019771;28;20251;-77
2022/07/11 14:36:29;;;;;;;0.90;0.90;;;;;;;;;;5015046;28;20238;-77
2022/07/11 14:38:57;;;;;;;1.20;1.00;;;;;;;;;;5018479;28;20268;-78
2022/07/11 14:41:24;;;;;;;0.90;0.90;;;;;;;;;;5017783;28;20230;-77
2022/07/11 14:43:52;;;;;;;1.77;1.05;;;;;;;;;;5009027;28;20317;-76
2022/07/11 14:46:22;;;;;;;0.95;0.95;;;;;;;;;;5016566;28;20310;-76
2022/07/11 14:48:49;;;;;;;1.75;1.10;;;;;;;;;;5014197;28;20277;-78
2022/07/11 14:51:16;;;;;;;1.83;1.10;;;;;;;;;;5016813;28;20210;-77
2022/07/11 14:54:04;;;;;;;1.58;1.00;;;;;;;;;;5020578;28;20206;-79
2022/07/11 14:56:32;;;;;;;1.17;1.00;;;;;;;;;;5015789;28;20297;-78
2022/07/11 14:59:01;;;;;;;1.25;1.15;;;;;;;;;;5018658;28;20671;-79
2022/07/11 15:01:28;;;;;;;1.00;1.00;;;;;;;;;;5012041;28;20238;-78
2022/07/11 15:03:56;;;;;;;1.25;1.13;;;;;;;;;;5015397;28;20243;-75
2022/07/11 15:12:20;;;;;;;2.22;1.20;;;;;;;;;;5017707;28;20737;-78
2022/07/11 15:14:42;;;;;;;2.20;1.08;;;;;;;;;;5018148;28;20663;-77
2022/07/11 15:17:09;;;;;;;1.30;1.20;;;;;;;;;;5022833;28;20635;-76